INDIANA  -  High Wind Watch High Wind Watch  
 JEFFERSON  -  High Wind Watch High Wind Watch  

Active alerts

Jefferson
  Details for Jefferson High Wind Watch
Indiana
  Details for Indiana High Wind Watch

Amazon Weather

Hours of Daylight

11 hrs 2 min 33 sec
of Daylight Today
graph 46% Day 54% Night Which is
2 min 39 sec Longer
Than Yesterday

South Webcam more information South Webcam


South West Webcam more information South West Webcam


You find our weather info also at:

UK Metoffice

Weather Underground

Mid-Atlantic Weather Network

WeatherlinkIP

Citizen Weather Observer Program (CWOP)

HAMweather, WeatherForYou, PWS Weather



Nearby METAR Reports

   
KDUJ - Du Bois, Pennsylvania, USA
Distance from station: NNE 16 mi
Updated: Feb 23 2019 6:53 am
Clear  
Clear  
   Wind: East 8.1 mph
Wind: East 8.1 mph
Temperature: 28.4°F
Wind Chill: 19.4°F
Dew Point: 19.4°F
Humidity: 69%
Barometer: 30.28 inHg
Clouds: Clear
Visibility: 10 mi
Cloud details: Clear
KDUJ 231153Z AUTO 10007KT 10SM CLR M02/M07 A3028 RMK AO2 SLP273 T10221072 11017 21028 58010 $
KIDI - Indiana/Stewart, Pennsylvania, USA
Distance from station: SSW 23 mi
Updated: Feb 23 2019 7:55 am
Clear  
Clear  
   Wind: ESE 9.2 mph
Wind: ESE 9.2 mph
Temperature: 35.6°F
Wind Chill: 28.4°F
Dew Point: 24.8°F
Humidity: 65%
Barometer: 30.31 inHg
Clouds: Clear
Visibility: 10 mi
Cloud details: Clear
KIDI 231255Z AUTO 12008KT 10SM CLR 02/M04 A3031 RMK A01
KFIG - Clearfield, Pennsylvania, USA
Distance from station: ENE 31 mi
Updated: Feb 23 2019 6:54 am
Clear  
Clear  
   Wind: NE 6.9 mph
Wind: NE 6.9 mph
Temperature: 26.6°F
Wind Chill: 19.4°F
Dew Point: 21.2°F
Humidity: 80%
Barometer: 30.35 inHg
Clouds: Clear
Visibility: 10 mi
Cloud details: Clear
KFIG 231154Z AUTO 04006KT 10SM CLR M03/M06 A3035 RMK AO2 SLP294 T10281061 11011 21028 58004
KJST - Johnstown, Pennsylvania, USA
Distance from station: S 44 mi
Updated: Feb 23 2019 6:54 am
Clear  
Clear  
   Wind: SE 9.2 mph<br />Gust to 9.2 mph
Wind: SE 9.2 mph
Gust to 9.2 mph
Temperature: 32°F
Wind Chill: 24.8°F
Dew Point: 21.2°F
Humidity: 64%
Barometer: 30.27 inHg
Clouds: Clear
Visibility: 10 mi
Cloud details: Clear
KJST 231154Z AUTO 13008G15KT 10SM CLR 00/M06 A3027 RMK AO2 SLP275 T00001061 10006 21011 55003
KPIT - Pittsburgh, Pennsylvania, USA
Distance from station: WSW 74 mi
Updated: Feb 23 2019 7:51 am
Overcast  
Overcast  
   Wind: ESE 8.1 mph
Wind: ESE 8.1 mph
Temperature: 33.8°F
Wind Chill: 26.6°F
Dew Point: 24.8°F
Humidity: 70%
Barometer: 30.21 inHg
Clouds: Overcast
Visibility: 10 mi
Cloud details: Overcast 25000 ft
KPIT 231251Z 11007KT 10SM OVC250 01/M04 A3021 RMK AO2 SLP250 T00061039
KLBE - Latrobe/Westmorl, Pennsylvania, USA
Distance from station: SSW 52 mi
Updated: Feb 23 2019 7:53 am
Overcast  
Overcast  
   Wind: SE 5.8 mph
Wind: SE 5.8 mph
Temperature: 39.2°F
Wind Chill: 35.6°F
Dew Point: 23°F
Humidity: 52%
Barometer: 30.26 inHg
Clouds: Overcast
Visibility: 10 mi
Cloud details: Overcast 15000 ft
KLBE 231253Z 14005KT 10SM OVC150 04/M05 A3026
KBTP - Butler Co., Pennsylvania, USA
Distance from station: WSW 52 mi
Updated: Feb 23 2019 6:56 am
Clear  
Clear  
   Wind: East 11.5 mph
Wind: East 11.5 mph
Temperature: 33.8°F
Wind Chill: 24.8°F
Dew Point: 24.8°F
Humidity: 70%
Barometer: 30.26 inHg
Clouds: Clear
Visibility: 10 mi
Cloud details: Clear
KBTP 231156Z AUTO 09010KT 10SM CLR 01/M04 A3026 RMK AO2 SLP264 6//// 7//// T00061044 10006 21011 56014 FZRANO
KUCP - New Castle Muni, Pennsylvania, USA
Distance from station: W 75 mi
Updated: Feb 23 2019 6:56 am
Clear  
Clear  
   Wind: varies 5.8 mph
Wind: varies 5.8 mph
Temperature: 32°F
Wind Chill: 26.6°F
Dew Point: 23°F
Humidity: 69%
Barometer: 30.25 inHg
Clouds: Clear
Visibility: 10 mi
Cloud details: Clear
KUCP 231156Z AUTO VRB05KT 10SM CLR 00/M05 A3025 RMK AO2 SLP272 T00001050 10006 21028 56018
KFKL - Franklin, Pennsylvania, USA
Distance from station: WNW 54 mi
Updated: Feb 23 2019 5:56 am
NOT Current
Clear  
Clear  
   Wind: East 5.8 mph
Wind: East 5.8 mph
Temperature: 28.4°F
Wind Chill: 21.2°F
Dew Point: 21.2°F
Humidity: 74%
Barometer: 30.28 inHg
Clouds: Clear
Visibility: 10 mi
Cloud details: Clear
KFKL 231056Z AUTO 09005KT 10SM CLR M02/M06 A3028 RMK AO2 SLP273 T10171056 FZRANO
KAOO - Altoona, Pennsylvania, USA
Distance from station: SE 57 mi
Updated: Feb 23 2019 7:53 am
Clear  
Clear  
   Wind: ENE 3.5 mph
Wind: ENE 3.5 mph
Temperature: 28.4°F
Wind Chill: 24.8°F
Dew Point: 21.2°F
Humidity: 74%
Barometer: 30.36 inHg
Clouds: Clear
Visibility: 10 mi
Cloud details: Clear
KAOO 231253Z AUTO 07003KT 10SM CLR M02/M06 A3036 RMK AO2 SLP299 T10171061
KUNV - State College, Pennsylvania, USA
Distance from station: E 61 mi
Updated: Feb 23 2019 7:53 am
Clear  
Clear  
   Wind: NNE 4.6 mph
Wind: NNE 4.6 mph
Temperature: 28.4°F
Wind Chill: 23°F
Dew Point: 21.2°F
Humidity: 74%
Barometer: 30.39 inHg
Clouds: Clear
Visibility: 10 mi
Cloud details: Clear
KUNV 231253Z 02004KT 10SM SKC M02/M06 A3039
KBFD - Bradford, Pennsylvania, USA
Distance from station: NNE 62 mi
Updated: Feb 23 2019 7:53 am
Clear  
Clear  
   Wind: SE 9.2 mph
Wind: SE 9.2 mph
Temperature: 26.6°F
Wind Chill: 17.6°F
Dew Point: 19.4°F
Humidity: 74%
Barometer: 30.27 inHg
Clouds: Clear
Visibility: 10 mi
Cloud details: Clear
KBFD 231253Z AUTO 13008KT 10SM CLR M03/M07 A3027 RMK AO2 SLP273 T10331072

Script developed by  Saratoga-weather.org Adapted for the template by  Weerstation Leuven

Equipment we use:

Weather-station
Davis VP2

Weather-program
Cumulus

Weather-server
Dell Inspiron 3521

Provider
Host On A Rope

Davis VP2

Cumulus

Dell Inspiron 3521

Host On A Rope